Camden, SC (29020)

4:38 PM EST on December 08, 2016 (GMT -0500)
Brailsford Road Camden SC | | Change Station

Elev 253 ft 34.27 °N, 80.64 °W | Updated 9 seconds ago

Partly Cloudy
Partly Cloudy
54.5 °F
Feels Like 54.5 °F
N
0.9
Wind Variable Wind from SE
Gusts 2.5 mph

Today
High -- | Low -- °F
--% Chance of Precip.
Yesterday
High -- | Low -- °F
Precip. -- in
Pressure 30.12 in
Visibility 10.0 miles
Clouds Scattered Clouds 3700 ft
Dew Point 21 °F
Humidity 27%
Rainfall 0.00 in
Snow Depth Not available.
7:16 AM 5:12 PM
Waxing Gibbous, 67% visible
METAR KSSC 082058Z AUTO 33010KT 10SM SCT037 14/06 A3011 RMK AO2 SLP198 T01440056 53009 $
Pressure 30.12 in
Visibility 10.0 miles
Clouds Scattered Clouds 3700 ft
Dew Point 21 °F
Humidity 27%
Rainfall 0.00 in
Snow Depth Not available.
7:16 AM 5:12 PM
Waxing Gibbous, 67% visible
METAR KSSC 082058Z AUTO 33010KT 10SM SCT037 14/06 A3011 RMK AO2 SLP198 T01440056 53009 $

10-Day Weather Forecast

Almanac

Astronomy

Dec. 08, 2016 Rise Set
Actual Time
Civil Twilight
Nautical Twilight
Astronomical Twilight
Moon
Length of Visible Light
Length of Day
Tomorrow will be .
, % of the Moon is Illuminated

Today's Extremes

State Highs State Lows

Community

WunderPhotos

Upload Photos

1,956,277 photos uploaded!

WunderBlog® & News

Nearby

Air Quality

  Air Quality AQ Index Pollutant
Not available.

Snow Depth

Station Depth Elevation

Earthquake Activity

City Distance Mag. Time & Date
Minimum magnitude displayed is 2.5.

Coastal Water Temperatures

Place Temperature

Stations

Nearby Weather Stations

Station Location Temp. Windchill Dew Point Humidity Wind Precip. Elev Updated Type
                   

Watches & Warnings

There are currently no watches in effect.